sensor_id;sensor_type;location;lat;lon;timestamp;temperature;humidity
22249;DHT22;67538;52.180;5.646;2023-08-07T00:01:33;13.60;99.90
22249;DHT22;67538;52.180;5.646;2023-08-07T00:04:00;13.60;99.90
22249;DHT22;67538;52.180;5.646;2023-08-07T00:06:29;13.60;99.90
22249;DHT22;67538;52.180;5.646;2023-08-07T00:08:56;13.70;99.90
22249;DHT22;67538;52.180;5.646;2023-08-07T00:11:23;13.70;99.90
22249;DHT22;67538;52.180;5.646;2023-08-07T00:13:50;13.60;99.90
22249;DHT22;67538;52.180;5.646;2023-08-07T00:16:17;13.70;99.90
22249;DHT22;67538;52.180;5.646;2023-08-07T00:18:44;13.60;99.90
22249;DHT22;67538;52.180;5.646;2023-08-07T00:21:11;13.60;99.90
22249;DHT22;67538;52.180;5.646;2023-08-07T00:23:40;13.60;99.90
22249;DHT22;67538;52.180;5.646;2023-08-07T00:26:07;13.60;99.90
22249;DHT22;67538;52.180;5.646;2023-08-07T00:28:34;13.60;99.90
22249;DHT22;67538;52.180;5.646;2023-08-07T00:31:01;13.60;99.90
22249;DHT22;67538;52.180;5.646;2023-08-07T00:33:28;13.50;99.90
22249;DHT22;67538;52.180;5.646;2023-08-07T00:35:55;13.50;99.90
22249;DHT22;67538;52.180;5.646;2023-08-07T00:38:22;13.60;99.90
22249;DHT22;67538;52.180;5.646;2023-08-07T00:40:50;13.60;99.90
22249;DHT22;67538;52.180;5.646;2023-08-07T00:43:17;13.50;99.90
22249;DHT22;67538;52.180;5.646;2023-08-07T00:45:46;13.60;99.90
22249;DHT22;67538;52.180;5.646;2023-08-07T00:48:15;13.60;99.90
22249;DHT22;67538;52.180;5.646;2023-08-07T00:50:44;13.60;99.90
22249;DHT22;67538;52.180;5.646;2023-08-07T00:53:13;13.50;99.90
22249;DHT22;67538;52.180;5.646;2023-08-07T00:55:40;13.60;99.90
22249;DHT22;67538;52.180;5.646;2023-08-07T00:58:09;13.60;99.90
22249;DHT22;67538;52.180;5.646;2023-08-07T01:00:37;13.50;99.90
22249;DHT22;67538;52.180;5.646;2023-08-07T01:03:07;13.50;99.90
22249;DHT22;67538;52.180;5.646;2023-08-07T01:05:34;13.50;99.90
22249;DHT22;67538;52.180;5.646;2023-08-07T01:08:02;13.50;99.90
22249;DHT22;67538;52.180;5.646;2023-08-07T01:10:35;13.50;99.90
22249;DHT22;67538;52.180;5.646;2023-08-07T01:13:16;13.40;99.90
22249;DHT22;67538;52.180;5.646;2023-08-07T01:15:46;13.40;99.90
22249;DHT22;67538;52.180;5.646;2023-08-07T01:18:15;13.40;99.90
22249;DHT22;67538;52.180;5.646;2023-08-07T01:20:42;13.40;99.90
22249;DHT22;67538;52.180;5.646;2023-08-07T01:23:11;13.40;99.90
22249;DHT22;67538;52.180;5.646;2023-08-07T01:25:38;13.40;99.90
22249;DHT22;67538;52.180;5.646;2023-08-07T01:28:11;13.40;99.90
22249;DHT22;67538;52.180;5.646;2023-08-07T01:30:44;13.40;99.90
22249;DHT22;67538;52.180;5.646;2023-08-07T01:33:17;13.40;99.90
22249;DHT22;67538;52.180;5.646;2023-08-07T01:35:51;13.40;99.90
22249;DHT22;67538;52.180;5.646;2023-08-07T01:38:22;13.40;99.90
22249;DHT22;67538;52.180;5.646;2023-08-07T01:40:51;13.40;99.90
22249;DHT22;67538;52.180;5.646;2023-08-07T01:43:19;13.40;99.90
22249;DHT22;67538;52.180;5.646;2023-08-07T01:45:46;13.50;99.90
22249;DHT22;67538;52.180;5.646;2023-08-07T01:48:13;13.50;99.90
22249;DHT22;67538;52.180;5.646;2023-08-07T01:50:40;13.50;99.90
22249;DHT22;67538;52.180;5.646;2023-08-07T01:53:07;13.50;99.90
22249;DHT22;67538;52.180;5.646;2023-08-07T01:55:36;13.50;99.90
22249;DHT22;67538;52.180;5.646;2023-08-07T01:58:03;13.50;99.90
22249;DHT22;67538;52.180;5.646;2023-08-07T02:00:30;13.50;99.90
22249;DHT22;67538;52.180;5.646;2023-08-07T02:02:57;13.50;99.90
22249;DHT22;67538;52.180;5.646;2023-08-07T02:05:24;13.50;99.90
22249;DHT22;67538;52.180;5.646;2023-08-07T02:07:51;13.50;99.90
22249;DHT22;67538;52.180;5.646;2023-08-07T02:10:19;13.50;99.90
22249;DHT22;67538;52.180;5.646;2023-08-07T02:12:47;13.50;99.90
22249;DHT22;67538;52.180;5.646;2023-08-07T02:15:14;13.50;99.90
22249;DHT22;67538;52.180;5.646;2023-08-07T02:17:41;13.50;99.90
22249;DHT22;67538;52.180;5.646;2023-08-07T02:20:09;13.50;99.90
22249;DHT22;67538;52.180;5.646;2023-08-07T02:22:36;13.50;99.90
22249;DHT22;67538;52.180;5.646;2023-08-07T02:25:04;13.50;99.90
22249;DHT22;67538;52.180;5.646;2023-08-07T02:27:31;13.50;99.90
22249;DHT22;67538;52.180;5.646;2023-08-07T02:30:00;13.50;99.90
22249;DHT22;67538;52.180;5.646;2023-08-07T02:32:28;13.50;99.90
22249;DHT22;67538;52.180;5.646;2023-08-07T02:34:55;13.50;99.90
22249;DHT22;67538;52.180;5.646;2023-08-07T02:37:22;13.50;99.90
22249;DHT22;67538;52.180;5.646;2023-08-07T02:39:49;13.50;99.90
22249;DHT22;67538;52.180;5.646;2023-08-07T02:42:17;13.50;99.90
22249;DHT22;67538;52.180;5.646;2023-08-07T02:44:44;13.50;99.90
22249;DHT22;67538;52.180;5.646;2023-08-07T02:47:12;13.60;99.90
22249;DHT22;67538;52.180;5.646;2023-08-07T02:49:39;13.60;99.90
22249;DHT22;67538;52.180;5.646;2023-08-07T02:52:07;13.60;99.90
22249;DHT22;67538;52.180;5.646;2023-08-07T02:54:34;13.60;99.90
22249;DHT22;67538;52.180;5.646;2023-08-07T02:57:01;13.60;99.90
22249;DHT22;67538;52.180;5.646;2023-08-07T02:59:28;13.60;99.90
22249;DHT22;67538;52.180;5.646;2023-08-07T03:01:56;13.50;99.90
22249;DHT22;67538;52.180;5.646;2023-08-07T03:04:24;13.50;99.90
22249;DHT22;67538;52.180;5.646;2023-08-07T03:06:51;13.50;99.90
22249;DHT22;67538;52.180;5.646;2023-08-07T03:09:18;13.40;99.90
22249;DHT22;67538;52.180;5.646;2023-08-07T03:11:46;13.40;99.90
22249;DHT22;67538;52.180;5.646;2023-08-07T03:14:13;13.40;99.90
22249;DHT22;67538;52.180;5.646;2023-08-07T03:16:40;13.40;99.90
22249;DHT22;67538;52.180;5.646;2023-08-07T03:19:07;13.40;99.90
22249;DHT22;67538;52.180;5.646;2023-08-07T03:21:35;13.40;99.90
22249;DHT22;67538;52.180;5.646;2023-08-07T03:24:02;13.40;99.90
22249;DHT22;67538;52.180;5.646;2023-08-07T03:26:29;13.40;99.90
22249;DHT22;67538;52.180;5.646;2023-08-07T03:28:56;13.40;99.90
22249;DHT22;67538;52.180;5.646;2023-08-07T03:31:23;13.40;99.90
22249;DHT22;67538;52.180;5.646;2023-08-07T03:33:50;13.40;99.90
22249;DHT22;67538;52.180;5.646;2023-08-07T03:36:17;13.40;99.90
22249;DHT22;67538;52.180;5.646;2023-08-07T03:38:46;13.40;99.90
22249;DHT22;67538;52.180;5.646;2023-08-07T03:41:13;13.40;99.90
22249;DHT22;67538;52.180;5.646;2023-08-07T03:43:40;13.40;99.90
22249;DHT22;67538;52.180;5.646;2023-08-07T03:46:07;13.40;99.90
22249;DHT22;67538;52.180;5.646;2023-08-07T03:48:34;13.40;99.90
22249;DHT22;67538;52.180;5.646;2023-08-07T03:51:04;13.40;99.90
22249;DHT22;67538;52.180;5.646;2023-08-07T03:53:31;13.40;99.90
22249;DHT22;67538;52.180;5.646;2023-08-07T03:55:59;13.40;99.90
22249;DHT22;67538;52.180;5.646;2023-08-07T03:58:26;13.40;99.90
22249;DHT22;67538;52.180;5.646;2023-08-07T04:00:53;13.50;99.90
22249;DHT22;67538;52.180;5.646;2023-08-07T04:03:20;13.50;99.90
22249;DHT22;67538;52.180;5.646;2023-08-07T04:05:52;13.50;99.90
22249;DHT22;67538;52.180;5.646;2023-08-07T04:08:20;13.40;99.90
22249;DHT22;67538;52.180;5.646;2023-08-07T04:10:59;13.50;99.90
22249;DHT22;67538;52.180;5.646;2023-08-07T04:13:27;13.60;99.90
22249;DHT22;67538;52.180;5.646;2023-08-07T04:15:54;13.60;99.90
22249;DHT22;67538;52.180;5.646;2023-08-07T04:18:22;13.60;99.90
22249;DHT22;67538;52.180;5.646;2023-08-07T04:20:50;13.60;99.90
22249;DHT22;67538;52.180;5.646;2023-08-07T04:23:18;13.60;99.90
22249;DHT22;67538;52.180;5.646;2023-08-07T04:25:45;13.70;99.90
22249;DHT22;67538;52.180;5.646;2023-08-07T04:28:15;13.70;99.90
22249;DHT22;67538;52.180;5.646;2023-08-07T04:30:42;13.70;99.90
22249;DHT22;67538;52.180;5.646;2023-08-07T04:33:10;13.70;99.90
22249;DHT22;67538;52.180;5.646;2023-08-07T04:35:37;13.70;99.90
22249;DHT22;67538;52.180;5.646;2023-08-07T04:38:04;13.70;99.90
22249;DHT22;67538;52.180;5.646;2023-08-07T04:40:31;13.70;99.90
22249;DHT22;67538;52.180;5.646;2023-08-07T04:42:58;13.70;99.90
22249;DHT22;67538;52.180;5.646;2023-08-07T04:45:26;13.70;99.90
22249;DHT22;67538;52.180;5.646;2023-08-07T04:47:53;13.70;99.90
22249;DHT22;67538;52.180;5.646;2023-08-07T04:50:20;13.70;99.90
22249;DHT22;67538;52.180;5.646;2023-08-07T04:52:47;13.70;99.90
22249;DHT22;67538;52.180;5.646;2023-08-07T04:55:15;13.70;99.90
22249;DHT22;67538;52.180;5.646;2023-08-07T04:57:42;13.70;99.90
22249;DHT22;67538;52.180;5.646;2023-08-07T05:00:10;13.80;99.90
22249;DHT22;67538;52.180;5.646;2023-08-07T05:02:38;13.70;99.90
22249;DHT22;67538;52.180;5.646;2023-08-07T05:05:06;13.70;99.90
22249;DHT22;67538;52.180;5.646;2023-08-07T05:07:34;13.70;99.90
22249;DHT22;67538;52.180;5.646;2023-08-07T05:10:01;13.70;99.90
22249;DHT22;67538;52.180;5.646;2023-08-07T05:12:29;13.70;99.90
22249;DHT22;67538;52.180;5.646;2023-08-07T05:14:56;13.80;99.90
22249;DHT22;67538;52.180;5.646;2023-08-07T05:17:23;13.80;99.90
22249;DHT22;67538;52.180;5.646;2023-08-07T05:19:52;13.80;99.90
22249;DHT22;67538;52.180;5.646;2023-08-07T05:22:19;13.80;99.90
22249;DHT22;67538;52.180;5.646;2023-08-07T05:24:46;13.80;99.90
22249;DHT22;67538;52.180;5.646;2023-08-07T05:27:14;13.80;99.90
22249;DHT22;67538;52.180;5.646;2023-08-07T05:29:41;13.90;99.90
22249;DHT22;67538;52.180;5.646;2023-08-07T05:32:10;13.90;99.90
22249;DHT22;67538;52.180;5.646;2023-08-07T05:34:37;13.90;99.90
22249;DHT22;67538;52.180;5.646;2023-08-07T05:37:06;13.90;99.90
22249;DHT22;67538;52.180;5.646;2023-08-07T05:39:34;13.90;99.90
22249;DHT22;67538;52.180;5.646;2023-08-07T05:42:01;13.90;99.90
22249;DHT22;67538;52.180;5.646;2023-08-07T05:44:28;14.00;99.90
22249;DHT22;67538;52.180;5.646;2023-08-07T05:46:55;13.90;99.90
22249;DHT22;67538;52.180;5.646;2023-08-07T05:49:22;13.90;99.90
22249;DHT22;67538;52.180;5.646;2023-08-07T05:51:49;13.90;99.90
22249;DHT22;67538;52.180;5.646;2023-08-07T05:54:18;13.90;99.90
22249;DHT22;67538;52.180;5.646;2023-08-07T05:56:45;13.90;99.90
22249;DHT22;67538;52.180;5.646;2023-08-07T05:59:12;13.90;99.90
22249;DHT22;67538;52.180;5.646;2023-08-07T06:01:39;14.00;99.90
22249;DHT22;67538;52.180;5.646;2023-08-07T06:04:07;14.10;99.90
22249;DHT22;67538;52.180;5.646;2023-08-07T06:06:34;14.10;99.90
22249;DHT22;67538;52.180;5.646;2023-08-07T06:09:02;14.20;99.90
22249;DHT22;67538;52.180;5.646;2023-08-07T06:11:30;14.40;99.90
22249;DHT22;67538;52.180;5.646;2023-08-07T06:13:57;14.40;99.90
22249;DHT22;67538;52.180;5.646;2023-08-07T06:16:25;14.50;99.90
22249;DHT22;67538;52.180;5.646;2023-08-07T06:18:53;14.60;99.90
22249;DHT22;67538;52.180;5.646;2023-08-07T06:21:20;14.70;99.90
22249;DHT22;67538;52.180;5.646;2023-08-07T06:23:47;14.80;99.90
22249;DHT22;67538;52.180;5.646;2023-08-07T06:26:14;14.90;99.90
22249;DHT22;67538;52.180;5.646;2023-08-07T06:28:43;14.90;99.90
22249;DHT22;67538;52.180;5.646;2023-08-07T06:31:11;14.90;99.90
22249;DHT22;67538;52.180;5.646;2023-08-07T06:33:38;14.90;99.90
22249;DHT22;67538;52.180;5.646;2023-08-07T06:36:07;14.80;99.90
22249;DHT22;67538;52.180;5.646;2023-08-07T06:38:34;14.80;99.90
22249;DHT22;67538;52.180;5.646;2023-08-07T06:41:01;14.80;99.90
22249;DHT22;67538;52.180;5.646;2023-08-07T06:43:28;14.80;99.90
22249;DHT22;67538;52.180;5.646;2023-08-07T06:45:57;14.70;99.90
22249;DHT22;67538;52.180;5.646;2023-08-07T06:48:24;14.70;99.90
22249;DHT22;67538;52.180;5.646;2023-08-07T06:50:51;14.70;99.90
22249;DHT22;67538;52.180;5.646;2023-08-07T06:53:19;14.80;99.90
22249;DHT22;67538;52.180;5.646;2023-08-07T06:55:46;14.80;99.90
22249;DHT22;67538;52.180;5.646;2023-08-07T06:58:13;14.90;99.90
22249;DHT22;67538;52.180;5.646;2023-08-07T07:00:40;14.90;99.90
22249;DHT22;67538;52.180;5.646;2023-08-07T07:03:09;14.90;99.90
22249;DHT22;67538;52.180;5.646;2023-08-07T07:05:36;15.00;99.90
22249;DHT22;67538;52.180;5.646;2023-08-07T07:08:03;15.00;99.90
22249;DHT22;67538;52.180;5.646;2023-08-07T07:10:30;15.10;99.90
22249;DHT22;67538;52.180;5.646;2023-08-07T07:12:57;15.10;99.90
22249;DHT22;67538;52.180;5.646;2023-08-07T07:15:24;15.20;99.90
22249;DHT22;67538;52.180;5.646;2023-08-07T07:17:51;15.20;99.90
22249;DHT22;67538;52.180;5.646;2023-08-07T07:20:20;15.30;99.90
22249;DHT22;67538;52.180;5.646;2023-08-07T07:22:47;15.60;99.90
22249;DHT22;67538;52.180;5.646;2023-08-07T07:25:14;15.70;99.90
22249;DHT22;67538;52.180;5.646;2023-08-07T07:27:41;15.60;99.90
22249;DHT22;67538;52.180;5.646;2023-08-07T07:30:09;15.60;99.90
22249;DHT22;67538;52.180;5.646;2023-08-07T07:32:36;15.50;99.90
22249;DHT22;67538;52.180;5.646;2023-08-07T07:35:04;15.60;99.90
22249;DHT22;67538;52.180;5.646;2023-08-07T07:37:33;15.50;99.90
22249;DHT22;67538;52.180;5.646;2023-08-07T07:40:00;15.40;99.90
22249;DHT22;67538;52.180;5.646;2023-08-07T07:42:28;15.30;99.90
22249;DHT22;67538;52.180;5.646;2023-08-07T07:44:55;15.20;99.90
22249;DHT22;67538;52.180;5.646;2023-08-07T07:47:22;15.00;99.90
22249;DHT22;67538;52.180;5.646;2023-08-07T07:50:04;14.80;99.90
22249;DHT22;67538;52.180;5.646;2023-08-07T07:52:33;14.70;99.90
22249;DHT22;67538;52.180;5.646;2023-08-07T07:55:00;14.70;99.90
22249;DHT22;67538;52.180;5.646;2023-08-07T07:57:27;14.60;99.90
22249;DHT22;67538;52.180;5.646;2023-08-07T07:59:54;14.70;99.90
22249;DHT22;67538;52.180;5.646;2023-08-07T08:02:22;14.60;99.90
22249;DHT22;67538;52.180;5.646;2023-08-07T08:04:50;14.70;99.90
22249;DHT22;67538;52.180;5.646;2023-08-07T08:07:18;14.80;99.90
22249;DHT22;67538;52.180;5.646;2023-08-07T08:09:46;15.10;99.90
22249;DHT22;67538;52.180;5.646;2023-08-07T08:12:13;15.50;99.90
22249;DHT22;67538;52.180;5.646;2023-08-07T08:14:40;15.80;99.90
22249;DHT22;67538;52.180;5.646;2023-08-07T08:17:08;16.10;99.90
22249;DHT22;67538;52.180;5.646;2023-08-07T08:19:35;16.40;99.90
22249;DHT22;67538;52.180;5.646;2023-08-07T08:22:02;16.50;99.90
22249;DHT22;67538;52.180;5.646;2023-08-07T08:24:29;16.40;99.90
22249;DHT22;67538;52.180;5.646;2023-08-07T08:26:58;16.30;99.90
22249;DHT22;67538;52.180;5.646;2023-08-07T08:29:25;16.20;99.90
22249;DHT22;67538;52.180;5.646;2023-08-07T08:31:53;16.10;99.90
22249;DHT22;67538;52.180;5.646;2023-08-07T08:34:21;16.10;99.90
22249;DHT22;67538;52.180;5.646;2023-08-07T08:36:48;16.10;99.90
22249;DHT22;67538;52.180;5.646;2023-08-07T08:39:15;16.00;99.90
22249;DHT22;67538;52.180;5.646;2023-08-07T08:41:46;16.00;99.90
22249;DHT22;67538;52.180;5.646;2023-08-07T08:44:17;15.80;99.90
22249;DHT22;67538;52.180;5.646;2023-08-07T08:46:47;15.70;99.90
22249;DHT22;67538;52.180;5.646;2023-08-07T08:49:23;15.80;99.90
22249;DHT22;67538;52.180;5.646;2023-08-07T08:51:53;16.30;99.90
22249;DHT22;67538;52.180;5.646;2023-08-07T08:54:21;16.70;99.90
22249;DHT22;67538;52.180;5.646;2023-08-07T08:56:48;17.10;99.90
22249;DHT22;67538;52.180;5.646;2023-08-07T08:59:18;17.20;99.90
22249;DHT22;67538;52.180;5.646;2023-08-07T09:01:45;17.10;99.90
22249;DHT22;67538;52.180;5.646;2023-08-07T09:04:13;16.90;99.90
22249;DHT22;67538;52.180;5.646;2023-08-07T09:06:41;16.80;99.90
22249;DHT22;67538;52.180;5.646;2023-08-07T09:09:08;16.80;99.90
22249;DHT22;67538;52.180;5.646;2023-08-07T09:11:37;16.60;99.90
22249;DHT22;67538;52.180;5.646;2023-08-07T09:14:05;16.60;99.90
22249;DHT22;67538;52.180;5.646;2023-08-07T09:16:34;16.60;99.90
22249;DHT22;67538;52.180;5.646;2023-08-07T09:19:01;16.50;99.90
22249;DHT22;67538;52.180;5.646;2023-08-07T09:21:29;16.50;99.90
22249;DHT22;67538;52.180;5.646;2023-08-07T09:23:56;16.50;99.90
22249;DHT22;67538;52.180;5.646;2023-08-07T09:26:23;16.70;99.90
22249;DHT22;67538;52.180;5.646;2023-08-07T09:28:51;16.90;99.90
22249;DHT22;67538;52.180;5.646;2023-08-07T09:31:20;17.10;99.90
22249;DHT22;67538;52.180;5.646;2023-08-07T09:33:49;17.10;99.90
22249;DHT22;67538;52.180;5.646;2023-08-07T09:36:16;17.10;99.90
22249;DHT22;67538;52.180;5.646;2023-08-07T09:38:44;17.40;99.90
22249;DHT22;67538;52.180;5.646;2023-08-07T09:41:11;17.50;99.90
22249;DHT22;67538;52.180;5.646;2023-08-07T09:43:38;17.70;99.90
22249;DHT22;67538;52.180;5.646;2023-08-07T09:46:06;17.70;99.90
22249;DHT22;67538;52.180;5.646;2023-08-07T09:48:39;17.70;99.90
22249;DHT22;67538;52.180;5.646;2023-08-07T09:51:08;17.50;99.90
22249;DHT22;67538;52.180;5.646;2023-08-07T09:53:35;17.30;99.90
22249;DHT22;67538;52.180;5.646;2023-08-07T09:56:03;17.20;99.90
22249;DHT22;67538;52.180;5.646;2023-08-07T09:58:30;17.20;99.90
22249;DHT22;67538;52.180;5.646;2023-08-07T10:01:02;17.20;99.90
22249;DHT22;67538;52.180;5.646;2023-08-07T10:03:30;17.30;99.90
22249;DHT22;67538;52.180;5.646;2023-08-07T10:05:58;17.30;99.90
22249;DHT22;67538;52.180;5.646;2023-08-07T10:08:27;17.40;99.90
22249;DHT22;67538;52.180;5.646;2023-08-07T10:10:54;17.30;99.90
22249;DHT22;67538;52.180;5.646;2023-08-07T10:13:22;17.20;99.90
22249;DHT22;67538;52.180;5.646;2023-08-07T10:15:50;17.20;99.90
22249;DHT22;67538;52.180;5.646;2023-08-07T10:18:17;17.20;99.90
22249;DHT22;67538;52.180;5.646;2023-08-07T10:20:44;17.20;99.90
22249;DHT22;67538;52.180;5.646;2023-08-07T10:23:12;17.30;99.90
22249;DHT22;67538;52.180;5.646;2023-08-07T10:25:43;17.30;99.90
22249;DHT22;67538;52.180;5.646;2023-08-07T10:28:14;17.30;99.90
22249;DHT22;67538;52.180;5.646;2023-08-07T10:30:43;17.20;99.90
22249;DHT22;67538;52.180;5.646;2023-08-07T10:33:12;17.20;99.90
22249;DHT22;67538;52.180;5.646;2023-08-07T10:35:45;17.30;99.90
22249;DHT22;67538;52.180;5.646;2023-08-07T10:38:12;17.30;99.90
22249;DHT22;67538;52.180;5.646;2023-08-07T10:41:00;17.20;99.90
22249;DHT22;67538;52.180;5.646;2023-08-07T10:43:28;17.20;99.90
22249;DHT22;67538;52.180;5.646;2023-08-07T10:46:02;17.30;99.90
22249;DHT22;67538;52.180;5.646;2023-08-07T10:48:30;17.30;99.90
22249;DHT22;67538;52.180;5.646;2023-08-07T10:50:58;17.20;99.90
22249;DHT22;67538;52.180;5.646;2023-08-07T10:53:30;17.20;99.90
22249;DHT22;67538;52.180;5.646;2023-08-07T10:55:57;17.30;99.90
22249;DHT22;67538;52.180;5.646;2023-08-07T10:58:29;17.50;99.90
22249;DHT22;67538;52.180;5.646;2023-08-07T11:01:15;17.70;99.90
22249;DHT22;67538;52.180;5.646;2023-08-07T11:03:43;17.70;99.90
22249;DHT22;67538;52.180;5.646;2023-08-07T11:06:10;17.60;99.90
22249;DHT22;67538;52.180;5.646;2023-08-07T11:08:37;17.50;99.90
22249;DHT22;67538;52.180;5.646;2023-08-07T11:11:05;17.30;99.90
22249;DHT22;67538;52.180;5.646;2023-08-07T11:13:34;17.10;99.90
22249;DHT22;67538;52.180;5.646;2023-08-07T11:16:02;16.90;99.90
22249;DHT22;67538;52.180;5.646;2023-08-07T11:18:29;16.90;99.90
22249;DHT22;67538;52.180;5.646;2023-08-07T11:20:57;17.10;99.90
22249;DHT22;67538;52.180;5.646;2023-08-07T11:23:24;17.10;99.90
22249;DHT22;67538;52.180;5.646;2023-08-07T11:25:53;17.10;99.90
22249;DHT22;67538;52.180;5.646;2023-08-07T11:28:21;17.00;99.90
22249;DHT22;67538;52.180;5.646;2023-08-07T11:30:51;16.80;99.90
22249;DHT22;67538;52.180;5.646;2023-08-07T11:33:19;16.40;99.90
22249;DHT22;67538;52.180;5.646;2023-08-07T11:35:47;15.90;99.90
22249;DHT22;67538;52.180;5.646;2023-08-07T11:38:28;15.60;99.90
22249;DHT22;67538;52.180;5.646;2023-08-07T11:40:57;15.30;99.90
22249;DHT22;67538;52.180;5.646;2023-08-07T11:43:26;15.10;99.90
22249;DHT22;67538;52.180;5.646;2023-08-07T11:45:55;15.00;99.90
22249;DHT22;67538;52.180;5.646;2023-08-07T11:48:23;15.10;99.90
22249;DHT22;67538;52.180;5.646;2023-08-07T11:50:51;15.20;99.90
22249;DHT22;67538;52.180;5.646;2023-08-07T11:53:19;15.50;99.90
22249;DHT22;67538;52.180;5.646;2023-08-07T11:55:47;15.70;99.90
22249;DHT22;67538;52.180;5.646;2023-08-07T11:58:15;15.90;99.90
22249;DHT22;67538;52.180;5.646;2023-08-07T12:00:43;16.10;99.90
22249;DHT22;67538;52.180;5.646;2023-08-07T12:03:25;16.20;99.90
22249;DHT22;67538;52.180;5.646;2023-08-07T12:05:53;16.20;99.90
22249;DHT22;67538;52.180;5.646;2023-08-07T12:08:20;16.40;99.90
22249;DHT22;67538;52.180;5.646;2023-08-07T12:10:50;16.60;99.90
22249;DHT22;67538;52.180;5.646;2023-08-07T12:13:20;16.80;99.90
22249;DHT22;67538;52.180;5.646;2023-08-07T12:15:51;17.00;99.90
22249;DHT22;67538;52.180;5.646;2023-08-07T12:18:19;17.10;99.90
22249;DHT22;67538;52.180;5.646;2023-08-07T12:20:50;17.10;99.90
22249;DHT22;67538;52.180;5.646;2023-08-07T12:23:20;17.20;99.90
22249;DHT22;67538;52.180;5.646;2023-08-07T12:25:47;17.20;99.90
22249;DHT22;67538;52.180;5.646;2023-08-07T12:28:15;17.40;99.90
22249;DHT22;67538;52.180;5.646;2023-08-07T12:30:45;17.60;99.90
22249;DHT22;67538;52.180;5.646;2023-08-07T12:33:12;17.80;99.90
22249;DHT22;67538;52.180;5.646;2023-08-07T12:35:39;18.10;99.90
22249;DHT22;67538;52.180;5.646;2023-08-07T12:38:08;18.20;99.90
22249;DHT22;67538;52.180;5.646;2023-08-07T12:40:36;18.30;99.90
22249;DHT22;67538;52.180;5.646;2023-08-07T12:43:03;18.30;99.90
22249;DHT22;67538;52.180;5.646;2023-08-07T12:45:31;18.20;99.90
22249;DHT22;67538;52.180;5.646;2023-08-07T12:47:58;18.00;99.90
22249;DHT22;67538;52.180;5.646;2023-08-07T12:50:25;17.90;99.90
22249;DHT22;67538;52.180;5.646;2023-08-07T12:52:53;17.90;99.90
22249;DHT22;67538;52.180;5.646;2023-08-07T12:55:21;17.90;99.90
22249;DHT22;67538;52.180;5.646;2023-08-07T12:57:49;17.90;99.90
22249;DHT22;67538;52.180;5.646;2023-08-07T13:00:16;17.90;99.90
22249;DHT22;67538;52.180;5.646;2023-08-07T13:02:45;17.90;99.90
22249;DHT22;67538;52.180;5.646;2023-08-07T13:05:12;17.90;99.90
22249;DHT22;67538;52.180;5.646;2023-08-07T13:07:40;17.90;99.90
22249;DHT22;67538;52.180;5.646;2023-08-07T13:10:10;17.70;99.90
22249;DHT22;67538;52.180;5.646;2023-08-07T13:12:39;17.60;99.90
22249;DHT22;67538;52.180;5.646;2023-08-07T13:15:09;17.40;99.90
22249;DHT22;67538;52.180;5.646;2023-08-07T13:17:37;17.40;99.90
22249;DHT22;67538;52.180;5.646;2023-08-07T13:20:06;17.50;99.90
22249;DHT22;67538;52.180;5.646;2023-08-07T13:22:34;17.60;99.90
22249;DHT22;67538;52.180;5.646;2023-08-07T13:25:01;17.80;99.90
22249;DHT22;67538;52.180;5.646;2023-08-07T13:27:29;17.90;99.90
22249;DHT22;67538;52.180;5.646;2023-08-07T13:29:57;18.00;99.90
22249;DHT22;67538;52.180;5.646;2023-08-07T13:32:25;17.90;99.90
22249;DHT22;67538;52.180;5.646;2023-08-07T13:34:52;17.70;99.90
22249;DHT22;67538;52.180;5.646;2023-08-07T13:37:19;17.60;99.90
22249;DHT22;67538;52.180;5.646;2023-08-07T13:39:46;17.60;99.90
22249;DHT22;67538;52.180;5.646;2023-08-07T13:42:16;17.60;99.90
22249;DHT22;67538;52.180;5.646;2023-08-07T13:44:43;17.40;99.90
22249;DHT22;67538;52.180;5.646;2023-08-07T13:47:12;17.40;99.90
22249;DHT22;67538;52.180;5.646;2023-08-07T13:49:40;17.40;99.90
22249;DHT22;67538;52.180;5.646;2023-08-07T13:52:07;17.50;99.90
22249;DHT22;67538;52.180;5.646;2023-08-07T13:54:34;17.60;99.90
22249;DHT22;67538;52.180;5.646;2023-08-07T13:57:01;17.80;99.90
22249;DHT22;67538;52.180;5.646;2023-08-07T13:59:28;17.80;99.90
22249;DHT22;67538;52.180;5.646;2023-08-07T14:01:55;17.70;99.90
22249;DHT22;67538;52.180;5.646;2023-08-07T14:04:24;17.60;99.90
22249;DHT22;67538;52.180;5.646;2023-08-07T14:06:52;17.50;99.90
22249;DHT22;67538;52.180;5.646;2023-08-07T14:09:19;17.40;99.90
22249;DHT22;67538;52.180;5.646;2023-08-07T14:11:47;17.40;99.90
22249;DHT22;67538;52.180;5.646;2023-08-07T14:14:14;17.30;99.90
22249;DHT22;67538;52.180;5.646;2023-08-07T14:16:41;17.30;99.90
22249;DHT22;67538;52.180;5.646;2023-08-07T14:19:09;17.30;99.90
22249;DHT22;67538;52.180;5.646;2023-08-07T14:21:37;17.30;99.90
22249;DHT22;67538;52.180;5.646;2023-08-07T14:24:05;17.50;99.90
22249;DHT22;67538;52.180;5.646;2023-08-07T14:26:32;17.60;99.90
22249;DHT22;67538;52.180;5.646;2023-08-07T14:28:59;17.90;99.90
22249;DHT22;67538;52.180;5.646;2023-08-07T14:31:26;18.00;99.90
22249;DHT22;67538;52.180;5.646;2023-08-07T14:33:53;18.00;99.90
22249;DHT22;67538;52.180;5.646;2023-08-07T14:36:20;17.90;99.90
22249;DHT22;67538;52.180;5.646;2023-08-07T14:38:48;17.90;99.90
22249;DHT22;67538;52.180;5.646;2023-08-07T14:41:16;18.00;99.90
22249;DHT22;67538;52.180;5.646;2023-08-07T14:43:44;18.20;99.90
22249;DHT22;67538;52.180;5.646;2023-08-07T14:46:12;18.20;99.90
22249;DHT22;67538;52.180;5.646;2023-08-07T14:48:39;18.00;99.90
22249;DHT22;67538;52.180;5.646;2023-08-07T14:51:06;17.80;99.90
22249;DHT22;67538;52.180;5.646;2023-08-07T14:53:33;17.70;99.90
22249;DHT22;67538;52.180;5.646;2023-08-07T14:56:02;17.60;99.90
22249;DHT22;67538;52.180;5.646;2023-08-07T14:58:29;17.80;99.90
22249;DHT22;67538;52.180;5.646;2023-08-07T15:00:58;17.90;99.90
22249;DHT22;67538;52.180;5.646;2023-08-07T15:03:25;17.90;99.90
22249;DHT22;67538;52.180;5.646;2023-08-07T15:05:52;18.00;99.90
22249;DHT22;67538;52.180;5.646;2023-08-07T15:08:19;18.10;99.90
22249;DHT22;67538;52.180;5.646;2023-08-07T15:10:46;18.30;99.90
22249;DHT22;67538;52.180;5.646;2023-08-07T15:13:14;18.30;99.90
22249;DHT22;67538;52.180;5.646;2023-08-07T15:15:41;18.40;99.90
22249;DHT22;67538;52.180;5.646;2023-08-07T15:18:08;18.60;99.90
22249;DHT22;67538;52.180;5.646;2023-08-07T15:20:36;18.60;99.90
22249;DHT22;67538;52.180;5.646;2023-08-07T15:23:03;18.40;99.90
22249;DHT22;67538;52.180;5.646;2023-08-07T15:25:30;18.30;99.90
22249;DHT22;67538;52.180;5.646;2023-08-07T15:27:57;18.40;99.90
22249;DHT22;67538;52.180;5.646;2023-08-07T15:30:28;18.60;99.90
22249;DHT22;67538;52.180;5.646;2023-08-07T15:32:56;18.60;99.90
22249;DHT22;67538;52.180;5.646;2023-08-07T15:35:23;18.60;99.90